Time;durP1;ratioP1;P1;durP2;ratioP2;P2;SDS_P1;SDS_P2;PMS_P1;PMS_P2;Temp;Humidity;BMP_temperature;BMP_pressure;BME280_temperature;BME280_humidity;BME280_pressure;Samples;Min_cycle;Max_cycle;Signal;HPM_P1;HPM_P2
2021/04/12 00:00:21;;;;;;;14.48;8.98;;;4.20;99.90;;;;;;4959165;28;20046;-75
2021/04/12 00:03:02;;;;;;;11.02;7.57;;;4.30;99.90;;;;;;4975275;28;20031;-75
2021/04/12 00:05:43;;;;;;;11.85;8.40;;;4.30;99.90;;;;;;4975057;28;20045;-75
2021/04/12 00:08:31;;;;;;;9.18;5.55;;;4.20;99.90;;;;;;4985365;28;20479;-75
2021/04/12 00:11:10;;;;;;;9.57;7.88;;;4.20;99.90;;;;;;4975237;28;20054;-75
2021/04/12 00:14:00;;;;;;;11.90;7.95;;;4.20;99.90;;;;;;4974466;28;20039;-74
2021/04/12 00:16:41;;;;;;;11.98;8.05;;;4.30;99.90;;;;;;4985574;28;20051;-74
2021/04/12 00:19:55;;;;;;;12.98;7.78;;;4.20;99.90;;;;;;4962673;28;20050;-74
2021/04/12 00:22:27;;;;;;;12.65;8.10;;;4.20;99.90;;;;;;4882495;29;20418;-73
2021/04/12 00:25:06;;;;;;;12.52;8.57;;;4.20;99.90;;;;;;4895808;29;20056;-74
2021/04/12 00:27:52;;;;;;;11.85;7.72;;;4.20;99.90;;;;;;4895143;29;20045;-74
2021/04/12 00:30:22;;;;;;;12.45;8.60;;;4.20;99.90;;;;;;4883755;29;20096;-74
2021/04/12 00:32:55;;;;;;;12.50;8.60;;;4.20;99.90;;;;;;4895813;29;20044;-74
2021/04/12 00:35:33;;;;;;;12.77;9.02;;;4.20;99.90;;;;;;4895481;29;20292;-74
2021/04/12 00:38:08;;;;;;;11.77;8.27;;;4.20;99.90;;;;;;4895729;29;20036;-74
2021/04/12 00:40:43;;;;;;;10.85;7.88;;;4.20;99.90;;;;;;4894764;29;20049;-74
2021/04/12 00:43:36;;;;;;;10.32;7.68;;;4.20;99.90;;;;;;4894817;29;20081;-73
2021/04/12 00:46:24;;;;;;;9.82;7.38;;;4.20;99.90;;;;;;4895080;29;20045;-74
2021/04/12 00:49:00;;;;;;;11.68;7.70;;;4.20;99.90;;;;;;4894116;29;20045;-74
2021/04/12 00:52:14;;;;;;;11.80;7.32;;;4.20;99.90;;;;;;4876620;29;20071;-74
2021/04/12 00:55:08;;;;;;;11.43;7.32;;;4.20;99.90;;;;;;4968150;28;20058;-74
2021/04/12 00:57:58;;;;;;;10.43;7.07;;;4.20;99.90;;;;;;4956406;28;20042;-73
2021/04/12 01:00:57;;;;;;;10.05;7.10;;;4.20;99.90;;;;;;4979555;28;20046;-74
2021/04/12 01:03:56;;;;;;;9.80;7.45;;;4.20;99.90;;;;;;4987970;28;20031;-73
2021/04/12 01:06:49;;;;;;;13.60;7.55;;;4.20;99.90;;;;;;4986463;28;20476;-74
2021/04/12 01:09:34;;;;;;;14.23;7.38;;;4.20;99.90;;;;;;4977655;28;20034;-74
2021/04/12 01:12:34;;;;;;;8.85;7.10;;;4.20;99.90;;;;;;4973927;28;20035;-74
2021/04/12 01:15:21;;;;;;;13.68;8.10;;;4.10;99.90;;;;;;4986305;28;20425;-74
2021/04/12 01:18:26;;;;;;;12.32;8.07;;;4.10;99.90;;;;;;4973991;28;20516;-74
2021/04/12 01:21:50;;;;;;;13.15;8.52;;;4.10;99.90;;;;;;4973483;28;20046;-74
2021/04/12 01:24:41;;;;;;;12.75;8.07;;;4.10;99.90;;;;;;4972529;28;20050;-74
2021/04/12 01:27:16;;;;;;;13.52;9.15;;;4.10;99.90;;;;;;4972974;28;20058;-75
2021/04/12 01:30:06;;;;;;;14.88;9.48;;;4.10;99.90;;;;;;4972608;28;20491;-74
2021/04/12 01:33:10;;;;;;;16.60;10.48;;;4.10;99.90;;;;;;4973595;28;20059;-76
2021/04/12 01:36:04;;;;;;;16.02;11.20;;;4.10;99.90;;;;;;4955958;28;20037;-74
2021/04/12 01:39:02;;;;;;;18.60;12.00;;;4.00;99.90;;;;;;4972420;28;20039;-74
2021/04/12 01:41:51;;;;;;;17.30;12.57;;;4.00;99.90;;;;;;4973055;28;20038;-74
2021/04/12 01:44:40;;;;;;;19.33;12.77;;;4.10;99.90;;;;;;4984510;28;20376;-74
2021/04/12 01:47:18;;;;;;;19.95;13.27;;;4.00;99.90;;;;;;4973237;28;20054;-74
2021/04/12 01:50:07;;;;;;;20.25;14.43;;;4.00;99.90;;;;;;4988604;28;20038;-74
2021/04/12 01:52:49;;;;;;;18.60;13.25;;;4.00;99.90;;;;;;4972861;28;20035;-74
2021/04/12 01:55:15;;;;;;;17.80;12.27;;;4.10;99.90;;;;;;4971695;28;20039;-74
2021/04/12 01:58:19;;;;;;;18.60;13.95;;;4.10;99.90;;;;;;4972896;28;20030;-74
2021/04/12 02:01:10;;;;;;;21.88;13.63;;;4.10;99.90;;;;;;4972787;28;20031;-74
2021/04/12 02:03:47;;;;;;;21.02;14.13;;;4.10;99.90;;;;;;4957738;28;20034;-74
2021/04/12 02:06:41;;;;;;;17.13;11.68;;;4.10;99.90;;;;;;4972797;28;20026;-74
2021/04/12 02:09:38;;;;;;;15.10;11.52;;;4.10;99.90;;;;;;4972130;28;20059;-74
2021/04/12 02:12:22;;;;;;;12.85;9.65;;;4.10;99.90;;;;;;4981943;28;20050;-74
2021/04/12 02:15:19;;;;;;;11.07;7.80;;;4.10;99.90;;;;;;4975545;28;20031;-74
2021/04/12 02:18:06;;;;;;;11.43;6.97;;;4.10;99.90;;;;;;4972132;28;20043;-75
2021/04/12 02:20:57;;;;;;;9.68;6.35;;;4.10;99.90;;;;;;4983591;28;20038;-74
2021/04/12 02:24:00;;;;;;;9.07;5.68;;;4.10;99.90;;;;;;4983660;28;20051;-74
2021/04/12 02:26:46;;;;;;;9.93;5.50;;;4.10;99.90;;;;;;4978373;28;20062;-74
2021/04/12 02:29:49;;;;;;;7.85;5.13;;;4.10;99.90;;;;;;4989695;28;20027;-75
2021/04/12 02:32:27;;;;;;;8.05;5.22;;;4.00;99.90;;;;;;4979440;28;20367;-74
2021/04/12 02:35:25;;;;;;;9.75;4.60;;;4.00;99.90;;;;;;4979394;28;20026;-75
2021/04/12 02:38:30;;;;;;;8.68;5.68;;;4.00;99.90;;;;;;4979574;28;20046;-74
2021/04/12 02:41:28;;;;;;;11.50;6.13;;;3.90;99.90;;;;;;4973291;28;20380;-75
2021/04/12 02:44:17;;;;;;;8.52;4.75;;;3.90;99.90;;;;;;4984122;28;20376;-74
2021/04/12 02:47:04;;;;;;;9.68;5.95;;;3.80;99.90;;;;;;4972588;28;20042;-74
2021/04/12 02:49:58;;;;;;;8.80;6.40;;;3.80;99.90;;;;;;4972637;28;20379;-74
2021/04/12 02:52:43;;;;;;;10.93;6.93;;;3.70;99.90;;;;;;4972235;28;20035;-74
2021/04/12 02:55:39;;;;;;;7.70;6.13;;;3.70;99.90;;;;;;4972703;28;20033;-74
2021/04/12 02:58:24;;;;;;;8.90;6.18;;;3.70;99.90;;;;;;4977552;28;20030;-74
2021/04/12 03:01:21;;;;;;;9.27;6.50;;;3.60;99.90;;;;;;4975262;28;20457;-73
2021/04/12 03:04:03;;;;;;;10.68;6.88;;;3.70;99.90;;;;;;4972081;28;20023;-74
2021/04/12 03:07:04;;;;;;;9.48;6.75;;;3.70;99.90;;;;;;4972528;28;20034;-75
2021/04/12 03:10:08;;;;;;;7.88;6.15;;;3.60;99.90;;;;;;4984244;28;20042;-74
2021/04/12 03:13:12;;;;;;;9.88;6.00;;;3.60;99.90;;;;;;4974734;28;20086;-74
2021/04/12 03:15:48;;;;;;;9.05;6.55;;;3.60;99.90;;;;;;4876790;29;20589;-75
2021/04/12 03:18:26;;;;;;;9.50;6.70;;;3.70;99.90;;;;;;4895856;29;20044;-75
2021/04/12 03:21:21;;;;;;;11.68;6.20;;;3.60;99.90;;;;;;4937180;28;20039;-74
2021/04/12 03:24:06;;;;;;;10.32;5.45;;;3.60;99.90;;;;;;4975713;28;20046;-74
2021/04/12 03:26:41;;;;;;;11.25;6.90;;;3.60;99.90;;;;;;4988130;28;20053;-74
2021/04/12 03:29:39;;;;;;;12.27;6.93;;;3.70;99.90;;;;;;4975654;28;20043;-75
2021/04/12 03:32:59;;;;;;;12.95;7.93;;;3.60;99.90;;;;;;4979632;28;20395;-75
2021/04/12 03:35:44;;;;;;;15.13;8.63;;;3.70;99.90;;;;;;4882389;29;20037;-73
2021/04/12 03:38:38;;;;;;;14.95;9.88;;;3.70;99.90;;;;;;4878296;29;20041;-75
2021/04/12 03:41:16;;;;;;;14.25;9.32;;;3.70;99.90;;;;;;4891983;29;20480;-74
2021/04/12 03:44:19;;;;;;;15.13;10.52;;;3.70;99.90;;;;;;4878381;29;20041;-74
2021/04/12 03:47:09;;;;;;;22.02;13.07;;;3.70;99.90;;;;;;4892777;29;20506;-75
2021/04/12 03:50:07;;;;;;;25.23;13.43;;;3.80;99.90;;;;;;4878155;29;20037;-74
2021/04/12 03:52:50;;;;;;;25.55;15.80;;;3.80;99.90;;;;;;4878145;29;20438;-75
2021/04/12 03:55:28;;;;;;;26.27;17.30;;;3.90;99.90;;;;;;4878896;29;20040;-74
2021/04/12 03:58:17;;;;;;;29.70;18.38;;;4.00;99.90;;;;;;4878533;29;20045;-74
2021/04/12 04:01:00;;;;;;;27.73;18.75;;;3.90;99.90;;;;;;4878744;29;20072;-75
2021/04/12 04:03:44;;;;;;;33.58;19.90;;;4.00;99.90;;;;;;4878405;29;20041;-73
2021/04/12 04:06:32;;;;;;;30.27;19.35;;;4.00;99.90;;;;;;4923664;28;20511;-75
2021/04/12 04:09:40;;;;;;;29.42;18.63;;;3.90;99.90;;;;;;4975687;28;20062;-74
2021/04/12 04:12:33;;;;;;;33.15;20.15;;;4.00;99.90;;;;;;4953257;28;20057;-75
2021/04/12 04:15:12;;;;;;;26.05;17.73;;;3.90;99.90;;;;;;4971066;28;20043;-74
2021/04/12 04:17:54;;;;;;;28.23;19.15;;;3.90;99.90;;;;;;4983342;28;20379;-74
2021/04/12 04:20:59;;;;;;;28.25;19.17;;;3.90;99.90;;;;;;4977616;28;20054;-74
2021/04/12 04:23:34;;;;;;;32.42;19.48;;;3.90;99.90;;;;;;4947378;28;20514;-74
2021/04/12 04:26:00;;;;;;;33.05;20.63;;;3.90;99.90;;;;;;4975308;28;20472;-74
2021/04/12 04:28:48;;;;;;;28.33;18.92;;;3.90;99.90;;;;;;4974254;28;20039;-74
2021/04/12 04:31:32;;;;;;;30.17;21.02;;;3.90;99.90;;;;;;4987953;28;20043;-74
2021/04/12 04:34:17;;;;;;;25.45;18.00;;;3.90;99.90;;;;;;4973291;28;20054;-74
2021/04/12 04:37:07;;;;;;;26.67;19.27;;;3.90;99.90;;;;;;4967058;28;20285;-74
2021/04/12 04:39:51;;;;;;;24.67;17.73;;;3.90;99.90;;;;;;4974353;28;20042;-73
2021/04/12 04:42:47;;;;;;;23.42;16.17;;;3.90;99.90;;;;;;4974364;28;20031;-74
2021/04/12 04:45:36;;;;;;;26.60;16.20;;;3.90;99.90;;;;;;4974062;28;20050;-74
2021/04/12 04:48:14;;;;;;;22.40;14.55;;;3.90;99.90;;;;;;4974550;28;20030;-73
2021/04/12 04:51:00;;;;;;;17.40;12.55;;;3.90;99.90;;;;;;4984298;28;20059;-75
2021/04/12 04:53:57;;;;;;;18.98;12.63;;;3.90;99.90;;;;;;4974690;28;20046;-73
2021/04/12 04:56:29;;;;;;;24.35;13.75;;;3.80;99.90;;;;;;4974270;28;20380;-73
2021/04/12 04:59:02;;;;;;;19.80;12.00;;;3.80;99.90;;;;;;4991355;28;20034;-74
2021/04/12 05:02:01;;;;;;;16.25;12.13;;;3.80;99.90;;;;;;4977753;28;20026;-74
2021/04/12 05:05:02;;;;;;;15.43;11.23;;;3.80;99.90;;;;;;4972695;28;20054;-75
2021/04/12 05:08:02;;;;;;;17.55;11.45;;;3.70;99.90;;;;;;4895135;29;20052;-75
2021/04/12 05:10:49;;;;;;;19.17;11.57;;;3.70;99.90;;;;;;4982874;28;20046;-74
2021/04/12 05:13:25;;;;;;;17.08;10.65;;;3.70;99.90;;;;;;4977347;28;20043;-75
2021/04/12 05:16:16;;;;;;;15.30;9.02;;;3.70;99.90;;;;;;4983810;28;20376;-75
2021/04/12 05:18:46;;;;;;;19.23;11.20;;;3.70;99.90;;;;;;4985038;28;20026;-74
2021/04/12 05:21:32;;;;;;;16.27;9.85;;;3.70;99.90;;;;;;4973942;28;20472;-74
2021/04/12 05:24:31;;;;;;;14.43;10.70;;;3.70;99.90;;;;;;4973101;28;20055;-73
2021/04/12 05:27:03;;;;;;;15.77;9.70;;;3.70;99.90;;;;;;4973744;28;20046;-73
2021/04/12 05:30:08;;;;;;;15.27;9.82;;;3.70;99.90;;;;;;4973178;28;20045;-74
2021/04/12 05:32:59;;;;;;;13.57;9.52;;;3.70;99.90;;;;;;4984885;28;20038;-74
2021/04/12 05:35:50;;;;;;;13.38;9.23;;;3.70;99.90;;;;;;4973491;28;20030;-74
2021/04/12 05:38:49;;;;;;;13.88;8.90;;;3.70;99.90;;;;;;4973553;28;20419;-74
2021/04/12 05:41:18;;;;;;;14.95;9.15;;;3.70;99.90;;;;;;4964104;28;20053;-74
2021/04/12 05:44:20;;;;;;;14.25;8.48;;;3.80;99.90;;;;;;4984918;28;20031;-74
2021/04/12 05:47:05;;;;;;;13.63;7.68;;;3.80;99.90;;;;;;4956037;28;20039;-74
2021/04/12 05:49:53;;;;;;;12.10;7.78;;;3.80;99.90;;;;;;4978977;28;20054;-74
2021/04/12 05:52:50;;;;;;;11.63;8.38;;;3.90;99.90;;;;;;4977825;28;20058;-75
2021/04/12 05:55:16;;;;;;;11.13;7.65;;;3.90;99.90;;;;;;4973423;28;20038;-75
2021/04/12 05:57:57;;;;;;;12.07;8.05;;;3.90;99.90;;;;;;4972276;28;20074;-74
2021/04/12 06:00:28;;;;;;;10.30;7.80;;;4.00;99.90;;;;;;4972459;28;20047;-73
2021/04/12 06:03:09;;;;;;;12.52;7.72;;;4.00;99.90;;;;;;4973617;28;20042;-74
2021/04/12 06:06:00;;;;;;;12.77;7.80;;;4.10;99.90;;;;;;4972753;28;20039;-75
2021/04/12 06:08:36;;;;;;;10.23;7.77;;;4.10;99.90;;;;;;4972836;28;20459;-74
2021/04/12 06:11:30;;;;;;;15.00;8.93;;;4.20;99.90;;;;;;4974310;28;20061;-74
2021/04/12 06:14:14;;;;;;;11.85;7.25;;;4.20;99.90;;;;;;4980783;28;20380;-74
2021/04/12 06:17:18;;;;;;;12.98;9.45;;;4.20;99.90;;;;;;4972915;28;20383;-74
2021/04/12 06:20:40;;;;;;;16.25;8.65;;;4.20;99.90;;;;;;4972823;28;20046;-74
2021/04/12 06:23:34;;;;;;;10.05;7.28;;;4.20;99.90;;;;;;4894217;29;20076;-75
2021/04/12 06:26:29;;;;;;;13.27;7.50;;;4.30;99.90;;;;;;4894238;29;20136;-75
2021/04/12 06:29:09;;;;;;;9.85;7.35;;;4.30;99.90;;;;;;4894468;29;20387;-74
2021/04/12 06:31:47;;;;;;;9.70;7.13;;;4.40;99.90;;;;;;4894304;29;20429;-74
2021/04/12 06:34:50;;;;;;;11.18;7.63;;;4.50;99.90;;;;;;4895695;29;20126;-74
2021/04/12 06:37:48;;;;;;;11.15;7.00;;;4.50;99.90;;;;;;4895542;29;20041;-75
2021/04/12 06:41:00;;;;;;;12.23;7.82;;;4.60;99.90;;;;;;4896185;29;20056;-75
2021/04/12 06:44:05;;;;;;;9.40;7.22;;;4.70;99.90;;;;;;4896659;29;20439;-74
2021/04/12 06:47:12;;;;;;;9.43;6.63;;;4.60;99.90;;;;;;4893838;29;20486;-73
2021/04/12 06:49:47;;;;;;;10.15;6.85;;;4.70;99.90;;;;;;4881799;29;20060;-73
2021/04/12 06:52:35;;;;;;;12.93;7.85;;;4.80;99.90;;;;;;4888281;29;20065;-74
2021/04/12 06:55:19;;;;;;;11.20;6.70;;;4.90;99.90;;;;;;4975692;28;20037;-74
2021/04/12 06:58:19;;;;;;;8.38;7.18;;;4.90;99.90;;;;;;4946389;29;20061;-74
2021/04/12 07:01:30;;;;;;;10.02;7.85;;;5.00;99.90;;;;;;4969434;28;20046;-74
2021/04/12 07:04:15;;;;;;;10.65;6.45;;;5.20;99.30;;;;;;4931011;28;20054;-74
2021/04/12 07:07:19;;;;;;;10.70;7.35;;;5.20;99.90;;;;;;4973212;28;20042;-74
2021/04/12 07:09:51;;;;;;;12.05;6.85;;;5.40;99.90;;;;;;4963845;28;20203;-75
2021/04/12 07:12:47;;;;;;;10.07;7.28;;;5.30;99.40;;;;;;4975360;28;20067;-75
2021/04/12 07:15:50;;;;;;;8.48;6.10;;;5.60;97.50;;;;;;4972445;28;20042;-74
2021/04/12 07:19:01;;;;;;;9.77;6.18;;;5.60;97.50;;;;;;4969804;28;20042;-74
2021/04/12 07:22:03;;;;;;;9.55;6.40;;;5.90;95.80;;;;;;4938285;28;20051;-75
2021/04/12 07:25:01;;;;;;;8.55;5.95;;;6.20;95.10;;;;;;4969185;28;20053;-74
2021/04/12 07:28:05;;;;;;;7.80;6.15;;;6.20;95.00;;;;;;4970099;28;20409;-73
2021/04/12 07:30:52;;;;;;;11.25;5.75;;;6.20;93.70;;;;;;4975651;28;20034;-72
2021/04/12 07:33:30;;;;;;;11.50;5.50;;;5.90;91.80;;;;;;4989525;28;20038;-73
2021/04/12 07:36:26;;;;;;;8.73;4.70;;;5.80;91.80;;;;;;4980517;28;20030;-73
2021/04/12 07:38:58;;;;;;;7.75;4.47;;;5.60;92.10;;;;;;4899148;28;20052;-73
2021/04/12 07:41:52;;;;;;;6.82;4.57;;;5.80;90.80;;;;;;4975697;28;20412;-74
2021/04/12 07:44:49;;;;;;;6.80;4.57;;;5.70;90.60;;;;;;4975803;28;20502;-74
2021/04/12 07:47:53;;;;;;;9.32;4.60;;;6.00;90.40;;;;;;4975025;28;20046;-74
2021/04/12 07:50:56;;;;;;;9.35;4.90;;;5.80;89.70;;;;;;4975354;28;20062;-74
2021/04/12 07:53:41;;;;;;;8.80;5.80;;;5.50;89.50;;;;;;4975959;28;20042;-74
2021/04/12 07:56:32;;;;;;;4.85;3.95;;;6.10;90.20;;;;;;4974542;28;20047;-72
2021/04/12 07:59:13;;;;;;;6.00;3.90;;;6.60;85.70;;;;;;4975684;28;20026;-73
2021/04/12 08:02:07;;;;;;;5.82;4.40;;;6.90;82.80;;;;;;4974192;28;20043;-74
2021/04/12 08:04:45;;;;;;;5.95;4.10;;;6.80;81.00;;;;;;4973949;28;20464;-73
2021/04/12 08:07:48;;;;;;;6.80;3.83;;;7.10;77.70;;;;;;4975678;28;20391;-74
2021/04/12 08:10:54;;;;;;;6.78;3.83;;;6.90;78.70;;;;;;4974424;28;20066;-73
2021/04/12 08:13:45;;;;;;;8.00;5.53;;;7.00;77.40;;;;;;4975547;28;20039;-75
2021/04/12 08:16:48;;;;;;;8.60;3.78;;;7.00;76.70;;;;;;4974866;28;20369;-73
2021/04/12 08:19:25;;;;;;;7.00;3.88;;;7.30;75.50;;;;;;4974980;28;20027;-73
2021/04/12 08:22:17;;;;;;;6.32;2.55;;;7.60;74.60;;;;;;4974825;28;20041;-73
2021/04/12 08:25:02;;;;;;;8.10;3.50;;;7.80;68.70;;;;;;4974352;28;20058;-73
2021/04/12 08:27:56;;;;;;;6.72;3.35;;;7.30;72.00;;;;;;4986340;28;20647;-73
2021/04/12 08:30:48;;;;;;;5.63;3.75;;;6.70;71.90;;;;;;4984956;28;20382;-74
2021/04/12 08:33:14;;;;;;;5.32;3.10;;;6.40;75.80;;;;;;4986318;28;20035;-77
2021/04/12 08:35:40;;;;;;;4.68;3.30;;;7.10;72.40;;;;;;4973855;28;20031;-77
2021/04/12 08:38:25;;;;;;;8.98;3.65;;;7.20;72.80;;;;;;4984949;28;20035;-77
2021/04/12 08:41:33;;;;;;;6.30;3.30;;;6.50;73.80;;;;;;4974364;28;20042;-76
2021/04/12 08:44:17;;;;;;;4.53;2.67;;;7.10;72.10;;;;;;4896243;29;20036;-76
2021/04/12 08:46:43;;;;;;;6.55;2.78;;;7.50;66.80;;;;;;4895600;29;20040;-77
2021/04/12 08:49:28;;;;;;;6.20;2.90;;;7.30;68.50;;;;;;4927487;28;20051;-76
2021/04/12 08:52:16;;;;;;;6.88;3.25;;;7.40;67.50;;;;;;4973626;28;20046;-77
2021/04/12 08:55:10;;;;;;;5.57;3.13;;;7.70;68.90;;;;;;4974257;28;20031;-77
2021/04/12 08:57:51;;;;;;;5.72;2.80;;;8.60;66.60;;;;;;4979095;28;20033;-77
2021/04/12 09:00:42;;;;;;;7.43;4.03;;;8.30;64.40;;;;;;4988415;28;20061;-77
2021/04/12 09:03:32;;;;;;;4.78;2.97;;;7.50;69.70;;;;;;4974331;28;20038;-78
2021/04/12 09:06:08;;;;;;;5.77;3.27;;;7.00;68.90;;;;;;4974507;28;20372;-76
2021/04/12 09:08:43;;;;;;;4.38;2.50;;;6.80;69.00;;;;;;4973981;28;20617;-76
2021/04/12 09:11:44;;;;;;;6.32;3.20;;;7.10;66.50;;;;;;4981428;28;20053;-77
2021/04/12 09:14:20;;;;;;;;;;;7.40;67.50;;;;;;4979796;28;20058;-76
2021/04/12 09:17:14;;;;;;;7.85;4.40;;;7.00;67.00;;;;;;4973650;28;19910;-77
2021/04/12 09:19:42;;;;;;;9.30;4.45;;;6.80;70.60;;;;;;4973789;28;20030;-77
2021/04/12 09:22:25;;;;;;;6.80;5.38;;;7.10;69.40;;;;;;4973618;28;20423;-78
2021/04/12 09:25:10;;;;;;;9.57;4.35;;;8.10;68.90;;;;;;4980188;28;20073;-78
2021/04/12 09:27:50;;;;;;;7.55;4.10;;;8.30;65.00;;;;;;4955953;28;20399;-78
2021/04/12 09:30:55;;;;;;;8.50;5.70;;;7.20;66.00;;;;;;4981091;28;20042;-77
2021/04/12 09:33:59;;;;;;;7.32;4.20;;;6.70;69.20;;;;;;4983319;28;20035;-77
2021/04/12 09:36:37;;;;;;;7.53;4.28;;;7.70;70.20;;;;;;4973361;28;20050;-77
2021/04/12 09:39:20;;;;;;;7.75;4.75;;;8.60;65.50;;;;;;4973662;28;20045;-77
2021/04/12 09:41:55;;;;;;;7.78;4.72;;;7.90;65.20;;;;;;4973252;28;20026;-77
2021/04/12 09:44:40;;;;;;;8.30;3.97;;;7.90;65.30;;;;;;4973690;28;20035;-76
2021/04/12 09:47:31;;;;;;;9.00;4.45;;;7.20;66.90;;;;;;4973790;28;20483;-77
2021/04/12 09:50:15;;;;;;;8.57;5.18;;;6.80;69.00;;;;;;4973569;28;20499;-77
2021/04/12 09:53:19;;;;;;;6.95;4.00;;;6.60;69.20;;;;;;4973270;28;20053;-77
2021/04/12 09:56:49;;;;;;;8.15;4.05;;;6.80;68.80;;;;;;4973287;28;20030;-77
2021/04/12 09:59:36;;;;;;;6.55;3.72;;;7.70;66.80;;;;;;4947203;28;20050;-77
2021/04/12 10:02:36;;;;;;;10.75;3.75;;;9.50;62.60;;;;;;4973613;28;20035;-77
2021/04/12 10:05:35;;;;;;;7.25;3.38;;;9.10;58.40;;;;;;4958226;28;20046;-77
2021/04/12 10:08:25;;;;;;;7.25;3.33;;;8.60;60.20;;;;;;4982802;28;20034;-77
2021/04/12 10:11:08;;;;;;;7.75;3.92;;;8.80;59.30;;;;;;4973064;28;20047;-77
2021/04/12 10:13:58;;;;;;;11.23;10.00;;;9.00;59.90;;;;;;4977391;28;20030;-77
2021/04/12 10:16:35;;;;;;;5.60;3.30;;;9.20;59.00;;;;;;4984018;28;20031;-78
2021/04/12 10:19:11;;;;;;;5.68;3.95;;;8.50;58.30;;;;;;4973538;28;20464;-77
2021/04/12 10:21:41;;;;;;;5.53;3.22;;;8.00;59.40;;;;;;4972772;28;20111;-78
2021/04/12 10:24:18;;;;;;;6.55;3.90;;;7.30;60.40;;;;;;4972441;28;20043;-77
2021/04/12 10:26:54;;;;;;;5.57;3.95;;;7.10;62.00;;;;;;4957444;28;20038;-77
2021/04/12 10:29:55;;;;;;;8.50;4.05;;;7.20;64.30;;;;;;4977397;28;20046;-77
2021/04/12 10:32:30;;;;;;;6.28;4.00;;;7.70;62.60;;;;;;4983277;28;20376;-77
2021/04/12 10:35:05;;;;;;;6.95;3.45;;;8.30;59.60;;;;;;4977734;28;20464;-77
2021/04/12 10:37:53;;;;;;;4.63;1.70;;;8.50;57.50;;;;;;4980640;28;20038;-76
2021/04/12 10:40:41;;;;;;;4.07;2.05;;;8.60;52.90;;;;;;4988000;28;20042;-78
2021/04/12 10:43:24;;;;;;;5.82;2.47;;;8.70;55.10;;;;;;4976102;28;20400;-78
2021/04/12 10:46:09;;;;;;;4.75;2.80;;;8.60;55.30;;;;;;4973010;28;20429;-75
2021/04/12 10:48:42;;;;;;;5.60;3.33;;;8.30;57.90;;;;;;4986821;28;20492;-76
2021/04/12 10:51:56;;;;;;;4.82;3.00;;;7.90;58.20;;;;;;4988114;28;20114;-76
2021/04/12 10:54:25;;;;;;;4.97;3.03;;;7.80;57.70;;;;;;4887063;28;20047;-75
2021/04/12 10:57:18;;;;;;;7.60;4.80;;;8.30;59.00;;;;;;4976123;28;20035;-75
2021/04/12 11:00:06;;;;;;;8.82;3.05;;;8.80;59.00;;;;;;4975032;28;20051;-75
2021/04/12 11:02:47;;;;;;;3.25;1.77;;;9.00;55.40;;;;;;4958493;28;20369;-75
2021/04/12 11:05:18;;;;;;;4.28;2.60;;;8.70;54.80;;;;;;4976137;28;20034;-75
2021/04/12 11:08:09;;;;;;;6.13;2.28;;;8.10;55.00;;;;;;4976302;28;20031;-76
2021/04/12 11:10:38;;;;;;;4.78;3.08;;;7.90;55.50;;;;;;4983710;28;20051;-76
2021/04/12 11:13:34;;;;;;;4.30;2.92;;;8.00;56.20;;;;;;4981807;28;20034;-76
2021/04/12 11:16:12;;;;;;;2.70;2.35;;;8.10;55.10;;;;;;4963220;28;20038;-76
2021/04/12 11:19:12;;;;;;;5.03;3.00;;;8.20;55.70;;;;;;4993579;28;20031;-75
2021/04/12 11:21:50;;;;;;;4.13;1.80;;;8.10;55.50;;;;;;4975524;28;20027;-75
2021/04/12 11:24:38;;;;;;;5.50;1.65;;;8.30;56.40;;;;;;4989165;28;20053;-75
2021/04/12 11:27:26;;;;;;;2.85;1.95;;;8.40;56.00;;;;;;4981466;28;20043;-75
2021/04/12 11:30:04;;;;;;;4.72;1.77;;;8.60;55.90;;;;;;4975562;28;20027;-75
2021/04/12 11:32:58;;;;;;;5.70;2.30;;;8.90;54.00;;;;;;4984978;28;20387;-76
2021/04/12 11:35:49;;;;;;;6.30;2.13;;;8.80;56.40;;;;;;4993943;28;20029;-76
2021/04/12 11:38:20;;;;;;;5.32;1.70;;;8.80;55.50;;;;;;4975394;28;20047;-75
2021/04/12 11:41:12;;;;;;;4.03;1.80;;;8.90;53.90;;;;;;4985883;28;20046;-76
2021/04/12 11:43:43;;;;;;;15.57;8.85;;;8.60;53.40;;;;;;4975444;28;20046;-76
2021/04/12 11:46:16;;;;;;;;;;;8.30;54.10;;;;;;4976079;28;20034;-75
2021/04/12 11:49:09;;;;;;;4.15;3.17;;;7.90;53.90;;;;;;4987770;28;19913;-76
2021/04/12 11:51:52;;;;;;;6.15;3.33;;;8.00;55.60;;;;;;4986253;28;20045;-76
2021/04/12 11:54:30;;;;;;;12.38;7.30;;;8.10;54.40;;;;;;5001541;28;20035;-76
2021/04/12 11:57:03;;;;;;;5.32;3.55;;;8.10;55.80;;;;;;4999650;28;20034;-76
2021/04/12 12:00:01;;;;;;;4.20;1.20;;;8.50;54.30;;;;;;4984678;28;20039;-77
2021/04/12 12:02:49;;;;;;;4.03;1.60;;;8.90;54.80;;;;;;4955779;28;20047;-76
2021/04/12 12:05:25;;;;;;;5.20;1.63;;;9.40;55.10;;;;;;4983270;28;20030;-76
2021/04/12 12:08:20;;;;;;;3.15;1.40;;;9.80;52.50;;;;;;4979353;28;20026;-76
2021/04/12 12:11:05;;;;;;;3.70;1.70;;;9.20;54.10;;;;;;4991797;28;20046;-76
2021/04/12 12:13:51;;;;;;;3.53;1.35;;;9.10;55.50;;;;;;4999172;28;20053;-76
2021/04/12 12:16:34;;;;;;;3.60;2.22;;;9.50;53.30;;;;;;4997879;28;20042;-76
2021/04/12 12:19:29;;;;;;;4.13;2.03;;;9.70;53.80;;;;;;5002657;28;20033;-76
2021/04/12 12:22:14;;;;;;;4.40;1.08;;;9.90;52.80;;;;;;5000523;28;20273;-77
2021/04/12 12:25:12;;;;;;;3.42;1.30;;;10.00;52.10;;;;;;5001930;28;20069;-77
2021/04/12 12:27:42;;;;;;;3.00;1.52;;;9.90;51.20;;;;;;4999670;28;20495;-76
2021/04/12 12:30:19;;;;;;;4.65;1.80;;;9.20;51.90;;;;;;4987028;28;20035;-76
2021/04/12 12:33:18;;;;;;;3.67;1.30;;;9.00;54.80;;;;;;4975107;28;20380;-76
2021/04/12 12:35:58;;;;;;;3.42;1.92;;;8.90;53.10;;;;;;4956608;28;20042;-76
2021/04/12 12:38:24;;;;;;;4.53;1.40;;;8.70;52.30;;;;;;4974718;28;20373;-76
2021/04/12 12:40:59;;;;;;;1.95;0.82;;;8.60;53.10;;;;;;4974244;28;20480;-77
2021/04/12 12:43:30;;;;;;;4.82;2.30;;;8.40;52.80;;;;;;4972689;28;20042;-76
2021/04/12 12:46:07;;;;;;;3.13;1.02;;;8.20;52.90;;;;;;4974023;28;20026;-74
2021/04/12 12:48:42;;;;;;;2.72;1.38;;;8.20;52.80;;;;;;4956845;28;20039;-75
2021/04/12 12:51:13;;;;;;;2.30;1.08;;;8.50;52.30;;;;;;4983493;28;20046;-76
2021/04/12 12:53:45;;;;;;;4.38;1.25;;;8.80;51.80;;;;;;4993356;28;20030;-76
2021/04/12 12:56:12;;;;;;;4.68;1.48;;;9.20;52.20;;;;;;4985145;28;20049;-76
2021/04/12 12:58:39;;;;;;;4.57;2.53;;;9.40;52.10;;;;;;5000079;28;20035;-76
2021/04/12 13:01:09;;;;;;;27.35;15.93;;;9.00;51.20;;;;;;4991223;28;20045;-76
2021/04/12 13:03:44;;;;;;;3.33;1.85;;;9.40;51.30;;;;;;4996528;28;20054;-76
2021/04/12 13:06:20;;;;;;;4.68;1.80;;;9.20;50.80;;;;;;4983673;28;20042;-77
2021/04/12 13:08:59;;;;;;;1.92;0.85;;;9.30;51.30;;;;;;4987910;28;20499;-76
2021/04/12 13:11:37;;;;;;;4.63;2.30;;;9.20;49.10;;;;;;4992161;28;20033;-76
2021/04/12 13:14:36;;;;;;;4.00;1.55;;;8.80;51.70;;;;;;4990054;28;20030;-76
2021/04/12 13:17:32;;;;;;;5.78;1.60;;;8.90;50.10;;;;;;4974657;28;20045;-76
2021/04/12 13:20:25;;;;;;;7.75;5.20;;;8.60;50.80;;;;;;4973604;28;20063;-78
2021/04/12 13:23:07;;;;;;;5.15;3.50;;;8.60;52.10;;;;;;4986813;28;20034;-76
2021/04/12 13:25:46;;;;;;;6.18;3.40;;;9.10;50.70;;;;;;4963015;28;20400;-78
2021/04/12 13:28:17;;;;;;;20.23;10.00;;;9.60;49.80;;;;;;4964504;28;20046;-76
2021/04/12 13:30:56;;;;;;;30.80;17.95;;;10.00;50.10;;;;;;4983036;28;20035;-79
2021/04/12 13:33:45;;;;;;;5.88;2.90;;;9.70;49.30;;;;;;4979475;28;20038;-79
2021/04/12 13:36:32;;;;;;;3.50;1.50;;;9.30;48.20;;;;;;4972521;28;20047;-76
2021/04/12 13:39:07;;;;;;;3.60;1.08;;;9.50;48.60;;;;;;4973124;28;20388;-75
2021/04/12 13:41:37;;;;;;;2.50;1.50;;;10.10;47.80;;;;;;4974306;28;20046;-76
2021/04/12 13:44:09;;;;;;;2.13;1.13;;;10.00;48.20;;;;;;4955993;28;20043;-76
2021/04/12 13:46:53;;;;;;;5.28;1.42;;;9.80;48.20;;;;;;4982841;28;20054;-76
2021/04/12 13:49:34;;;;;;;1.60;1.08;;;9.60;48.40;;;;;;4969438;28;20034;-76
2021/04/12 13:52:10;;;;;;;3.47;1.55;;;9.60;49.20;;;;;;4971120;28;20372;-76
2021/04/12 13:54:52;;;;;;;2.30;1.20;;;9.70;48.60;;;;;;4956803;28;20054;-76
2021/04/12 13:57:34;;;;;;;2.95;1.38;;;9.70;49.00;;;;;;4990204;28;20041;-76
2021/04/12 14:00:32;;;;;;;2.72;1.40;;;9.60;48.90;;;;;;4972640;28;20460;-77
2021/04/12 14:03:13;;;;;;;2.53;1.05;;;10.00;48.10;;;;;;4948217;28;20042;-77
2021/04/12 14:05:50;;;;;;;2.40;1.42;;;9.90;48.10;;;;;;4972600;28;20031;-77
2021/04/12 14:08:24;;;;;;;6.22;1.77;;;10.00;48.90;;;;;;4985531;28;20491;-77
2021/04/12 14:11:02;;;;;;;1.80;1.23;;;10.10;47.80;;;;;;4978988;28;20031;-76
2021/04/12 14:13:43;;;;;;;3.72;1.35;;;10.30;45.00;;;;;;4979194;28;20043;-76
2021/04/12 14:16:29;;;;;;;6.25;4.03;;;10.30;47.00;;;;;;4974448;28;20067;-77
2021/04/12 14:19:00;;;;;;;7.82;2.95;;;10.00;47.50;;;;;;4972668;28;20031;-76
2021/04/12 14:21:34;;;;;;;8.35;3.30;;;9.80;48.20;;;;;;4973110;28;20038;-75
2021/04/12 14:24:22;;;;;;;15.48;9.63;;;9.70;47.80;;;;;;4972885;28;20055;-76
2021/04/12 14:27:06;;;;;;;5.40;3.40;;;9.50;48.30;;;;;;4973322;28;20039;-76
2021/04/12 14:29:40;;;;;;;3.10;1.58;;;9.40;48.00;;;;;;4972215;28;20050;-76
2021/04/12 14:32:13;;;;;;;2.15;1.33;;;9.30;49.30;;;;;;4970086;28;20047;-76